Markham, Canada
Current Conditions -  °F | °C
As of 11:00 PM on Monday 20 Oct 2014 (Local Time) from CYKZ Reporting Station
Haze Haze  
Wind Chill: 50°   Ceiling: 1800
Heat Index: 50°   Visibility: 5mi
Dew Point: 50°   Wind: 0mph
Humidity: 100%   Direction: NA
Pressure: 29.8"   Gusts: NA
Location:  43.86°N, 79.34°W
Report Text: CYKZ 210300Z 00000KT 5SM BR BKN018 OVC030 10/10 A2980 RMKSC5SC3 SLP094
Loading
Personal Weather Stations






























Interactive Weather Map New forecast layout! Learn more

10-Day Weather Forecast

Advertisements
Track Severe Weather on mobile